Terminal Aerodrome Forecast
Issued by NWS

Home | Current Version | Previous Version | Text Only | Print | Product List | Glossary On
Versions: 1 2 3 4 5 6 7 8 9 10 11 12 13 14 15 16 17 18 19 20 21 22 23 24 25
172
FTUS43 KAPX 300601 AAA
TAFPLN
TAF AMD
KPLN 300601Z 3006/3106 28006KT P6SM SCT025 BKN070
      TEMPO 3006/3009 BKN015
     FM301700 28009KT P6SM FEW040
     FM310000 26005KT P6SM SKC
     FM310400 23004KT P6SM FEW250=

USA.gov is the U.S. government's official web portal to all federal, state and local government web resources and services.